createdAt,value
2018-07-31T00:01:05.282Z,99.90
2018-07-31T00:03:33.604Z,99.90
2018-07-31T00:06:01.785Z,99.90
2018-07-31T00:08:30.020Z,99.90
2018-07-31T00:10:58.321Z,99.90
2018-07-31T00:13:26.532Z,99.90
2018-07-31T00:15:54.754Z,99.90
2018-07-31T00:18:22.981Z,99.90
2018-07-31T00:20:51.246Z,99.90
2018-07-31T00:23:19.561Z,99.90
2018-07-31T00:25:47.843Z,99.90
2018-07-31T00:28:16.074Z,99.90
2018-07-31T00:30:44.312Z,99.90
2018-07-31T00:33:12.540Z,99.90
2018-07-31T00:35:40.766Z,99.90
2018-07-31T00:38:09.369Z,99.90
2018-07-31T00:40:37.601Z,99.90
2018-07-31T00:43:05.834Z,99.90
2018-07-31T00:45:34.026Z,99.90
2018-07-31T00:48:02.254Z,99.90
2018-07-31T00:50:30.453Z,99.90
2018-07-31T00:52:58.678Z,99.90
2018-07-31T00:55:26.885Z,99.90
2018-07-31T00:57:55.090Z,99.90
2018-07-31T01:00:23.358Z,99.90
2018-07-31T01:02:51.553Z,99.90
2018-07-31T01:05:19.764Z,99.90
2018-07-31T01:07:47.976Z,99.90
2018-07-31T01:10:16.196Z,99.90
2018-07-31T01:12:44.421Z,99.90
2018-07-31T01:15:12.635Z,99.90
2018-07-31T01:17:40.850Z,99.90
2018-07-31T01:20:09.070Z,99.90
2018-07-31T01:22:37.290Z,99.90
2018-07-31T01:25:06.525Z,99.90
2018-07-31T01:27:34.731Z,99.90
2018-07-31T01:30:03.085Z,99.90
2018-07-31T01:32:31.290Z,99.90
2018-07-31T01:34:59.495Z,99.90
2018-07-31T01:37:27.698Z,99.90
2018-07-31T01:39:55.968Z,99.90
2018-07-31T01:42:24.168Z,99.90
2018-07-31T01:44:52.363Z,99.90
2018-07-31T01:47:20.569Z,99.90
2018-07-31T01:49:48.777Z,99.90
2018-07-31T01:52:17.038Z,99.90
2018-07-31T01:54:45.567Z,99.90
2018-07-31T01:57:13.789Z,99.90
2018-07-31T01:59:42.030Z,99.90
2018-07-31T02:02:10.209Z,99.90
2018-07-31T02:04:38.426Z,99.90
2018-07-31T02:07:06.638Z,99.90
2018-07-31T02:09:35.002Z,99.90
2018-07-31T02:14:36.302Z,99.90
2018-07-31T02:17:04.537Z,99.90
2018-07-31T02:19:32.784Z,99.90
2018-07-31T02:22:01.016Z,99.90
2018-07-31T02:24:29.221Z,99.90
2018-07-31T02:26:57.495Z,99.90
2018-07-31T02:29:31.023Z,99.90
2018-07-31T02:31:59.222Z,99.90
2018-07-31T02:34:27.416Z,99.90
2018-07-31T02:36:55.645Z,99.90
2018-07-31T02:39:23.851Z,99.90
2018-07-31T02:41:52.064Z,99.90
2018-07-31T02:44:20.269Z,99.90
2018-07-31T02:46:48.507Z,99.90
2018-07-31T02:49:16.702Z,99.90
2018-07-31T02:51:44.894Z,99.90
2018-07-31T02:54:13.327Z,99.90
2018-07-31T02:56:41.601Z,99.90
2018-07-31T02:59:09.886Z,99.90
2018-07-31T03:01:38.105Z,99.90
2018-07-31T03:04:06.309Z,99.90
2018-07-31T03:06:34.517Z,99.90
2018-07-31T03:09:02.719Z,99.90
2018-07-31T03:11:30.923Z,99.90
2018-07-31T03:13:59.129Z,99.90
2018-07-31T03:16:27.333Z,99.90
2018-07-31T03:18:55.525Z,99.90
2018-07-31T03:21:23.709Z,99.90
2018-07-31T03:23:51.906Z,99.90
2018-07-31T03:26:20.090Z,99.90
2018-07-31T03:28:48.285Z,99.90
2018-07-31T03:31:16.498Z,99.90
2018-07-31T03:33:44.681Z,99.90
2018-07-31T03:36:12.874Z,99.90
2018-07-31T03:38:41.066Z,99.90
2018-07-31T03:41:09.275Z,99.90
2018-07-31T03:43:37.461Z,99.90
2018-07-31T03:46:05.693Z,99.90
2018-07-31T03:48:33.936Z,99.90
2018-07-31T03:51:02.129Z,99.90
2018-07-31T03:53:30.316Z,99.90
2018-07-31T03:55:58.497Z,99.90
2018-07-31T03:58:26.691Z,99.90
2018-07-31T04:00:54.901Z,99.90
2018-07-31T04:03:23.125Z,99.90
2018-07-31T04:05:51.345Z,99.90
2018-07-31T04:08:19.560Z,99.90
2018-07-31T04:10:47.757Z,99.90
2018-07-31T04:15:43.973Z,99.90
2018-07-31T04:18:12.161Z,99.90
2018-07-31T04:20:40.383Z,99.90
2018-07-31T04:23:08.581Z,99.90
2018-07-31T04:25:36.781Z,99.90
2018-07-31T04:28:04.977Z,99.90
2018-07-31T04:30:33.175Z,99.90
2018-07-31T04:33:01.354Z,99.90
2018-07-31T04:35:29.561Z,99.90
2018-07-31T04:37:57.787Z,99.90
2018-07-31T04:40:26.002Z,99.90
2018-07-31T04:42:54.204Z,99.90
2018-07-31T04:45:22.440Z,99.90
2018-07-31T04:47:50.628Z,99.90
2018-07-31T04:50:18.881Z,99.90
2018-07-31T04:52:47.101Z,99.90
2018-07-31T04:55:15.290Z,99.90
2018-07-31T04:57:43.484Z,99.90
2018-07-31T05:00:11.702Z,99.90
2018-07-31T05:02:39.909Z,99.90
2018-07-31T05:05:08.115Z,99.90
2018-07-31T05:07:39.287Z,99.90
2018-07-31T05:10:10.835Z,99.90
2018-07-31T05:12:39.420Z,99.90
2018-07-31T05:15:07.631Z,99.90
2018-07-31T05:17:36.595Z,99.70
2018-07-31T05:20:05.175Z,99.60
2018-07-31T05:22:33.389Z,99.40
2018-07-31T05:25:01.616Z,99.30
2018-07-31T05:27:29.836Z,99.10
2018-07-31T05:29:58.042Z,98.80
2018-07-31T05:32:26.306Z,98.50
2018-07-31T05:34:54.511Z,98.40
2018-07-31T05:37:22.728Z,97.30
2018-07-31T05:39:50.959Z,95.20
2018-07-31T05:42:19.162Z,92.50
2018-07-31T05:44:47.362Z,88.50
2018-07-31T05:47:15.559Z,83.30
2018-07-31T05:49:43.757Z,79.60
2018-07-31T05:52:11.966Z,77.10
2018-07-31T05:54:40.341Z,76.20
2018-07-31T05:57:08.550Z,77.20
2018-07-31T05:59:36.762Z,78.00
2018-07-31T06:02:04.991Z,79.60
2018-07-31T06:04:33.204Z,80.80
2018-07-31T06:07:01.414Z,82.20
2018-07-31T06:09:29.685Z,83.40
2018-07-31T06:11:57.849Z,84.20
2018-07-31T06:14:26.042Z,84.90
2018-07-31T06:16:54.239Z,85.80
2018-07-31T06:19:22.436Z,86.40
2018-07-31T06:21:50.634Z,86.60
2018-07-31T06:24:18.837Z,85.90
2018-07-31T06:26:47.042Z,84.90
2018-07-31T06:29:15.252Z,84.00
2018-07-31T06:31:43.470Z,84.20
2018-07-31T06:34:11.694Z,86.00
2018-07-31T06:36:39.917Z,85.90
2018-07-31T06:39:09.268Z,86.90
2018-07-31T06:41:37.472Z,87.70
2018-07-31T06:44:06.001Z,87.80
2018-07-31T06:46:34.219Z,87.90
2018-07-31T06:49:02.421Z,88.50
2018-07-31T06:51:30.625Z,88.20
2018-07-31T06:53:58.829Z,86.10
2018-07-31T06:56:27.096Z,85.80
2018-07-31T06:58:55.549Z,85.40
2018-07-31T07:01:23.778Z,85.90
2018-07-31T07:03:51.981Z,85.50
2018-07-31T07:06:20.205Z,84.40
2018-07-31T07:08:48.405Z,84.70
2018-07-31T07:11:16.619Z,83.60
2018-07-31T07:13:44.840Z,82.50
2018-07-31T07:16:13.052Z,82.40
2018-07-31T07:18:41.261Z,81.30
2018-07-31T07:21:09.465Z,81.80
2018-07-31T07:23:37.762Z,80.90
2018-07-31T07:26:06.161Z,80.30
2018-07-31T07:28:34.372Z,77.70
2018-07-31T07:31:02.580Z,75.90
2018-07-31T07:33:30.800Z,75.80
2018-07-31T07:35:59.009Z,75.90
2018-07-31T07:38:27.227Z,72.30
2018-07-31T07:40:55.437Z,71.30
2018-07-31T07:43:23.666Z,72.20
2018-07-31T07:45:51.901Z,72.80
2018-07-31T07:48:20.157Z,70.90
2018-07-31T07:50:48.301Z,68.90
2018-07-31T07:53:16.504Z,67.90
2018-07-31T07:58:12.728Z,66.00
2018-07-31T08:00:40.926Z,64.10
2018-07-31T08:03:09.146Z,62.90
2018-07-31T08:05:37.345Z,63.00
2018-07-31T08:08:09.260Z,62.30
2018-07-31T08:10:38.848Z,62.60
2018-07-31T08:13:11.675Z,64.20
2018-07-31T08:15:39.869Z,61.50
2018-07-31T08:18:08.064Z,60.70
2018-07-31T08:20:36.260Z,61.40
2018-07-31T08:23:04.749Z,61.80
2018-07-31T08:25:32.955Z,62.70
2018-07-31T08:28:01.158Z,59.90
2018-07-31T08:30:29.350Z,60.10
2018-07-31T08:32:57.574Z,61.70
2018-07-31T08:35:26.134Z,60.00
2018-07-31T08:37:54.337Z,59.20
2018-07-31T08:40:22.594Z,60.00
2018-07-31T08:42:50.737Z,59.50
2018-07-31T08:45:18.937Z,59.50
2018-07-31T08:47:47.147Z,59.60
2018-07-31T08:50:15.350Z,61.00
2018-07-31T08:52:43.560Z,59.00
2018-07-31T08:55:11.770Z,58.60
2018-07-31T08:57:39.974Z,58.50
2018-07-31T09:00:23.744Z,59.00
2018-07-31T09:02:52.181Z,57.10
2018-07-31T09:05:20.394Z,56.50
2018-07-31T09:07:48.590Z,57.70
2018-07-31T09:10:17.684Z,58.00
2018-07-31T09:12:45.918Z,57.00
2018-07-31T09:15:14.212Z,56.50
2018-07-31T09:17:42.406Z,57.30
2018-07-31T09:20:10.594Z,57.50
2018-07-31T09:22:38.793Z,55.90
2018-07-31T09:25:06.976Z,56.00
2018-07-31T09:27:35.331Z,55.50
2018-07-31T09:30:03.525Z,56.00
2018-07-31T09:32:37.249Z,55.30
2018-07-31T09:35:05.964Z,56.60
2018-07-31T09:37:34.169Z,56.30
2018-07-31T09:40:02.365Z,55.80
2018-07-31T09:42:30.563Z,55.90
2018-07-31T09:44:58.745Z,54.80
2018-07-31T09:47:26.937Z,54.70
2018-07-31T09:49:55.136Z,53.70
2018-07-31T09:54:51.324Z,53.40
2018-07-31T09:57:19.530Z,53.40
2018-07-31T09:59:47.750Z,52.80
2018-07-31T10:02:16.036Z,52.70
2018-07-31T10:04:44.258Z,51.50
2018-07-31T10:07:12.486Z,52.00
2018-07-31T10:09:40.680Z,52.00
2018-07-31T10:12:08.928Z,51.30
2018-07-31T10:14:37.088Z,51.80
2018-07-31T10:17:05.362Z,51.40
2018-07-31T10:19:33.550Z,50.50
2018-07-31T10:22:01.773Z,49.80
2018-07-31T10:24:30.059Z,50.90
2018-07-31T10:26:58.224Z,51.20
2018-07-31T10:29:26.442Z,51.60
2018-07-31T10:31:54.636Z,50.60
2018-07-31T10:34:22.846Z,50.90
2018-07-31T10:36:51.024Z,50.40
2018-07-31T10:39:19.237Z,50.90
2018-07-31T10:41:47.960Z,50.10
2018-07-31T10:44:16.146Z,48.90
2018-07-31T10:46:44.350Z,48.60
2018-07-31T10:49:12.687Z,47.10
2018-07-31T10:51:43.201Z,46.70
2018-07-31T10:54:11.385Z,47.60
2018-07-31T10:56:39.753Z,48.10
2018-07-31T10:59:07.943Z,46.00
2018-07-31T11:24:44.107Z,45.70
2018-07-31T11:27:12.257Z,44.90
2018-07-31T11:29:40.405Z,46.30
2018-07-31T11:32:08.593Z,45.40
2018-07-31T11:34:36.756Z,44.00
2018-07-31T11:37:04.898Z,44.70
2018-07-31T11:39:33.064Z,45.30
2018-07-31T11:42:01.217Z,44.60
2018-07-31T11:44:29.356Z,44.50
2018-07-31T11:46:57.508Z,44.20
2018-07-31T11:49:25.653Z,44.30
2018-07-31T11:51:53.800Z,44.10
2018-07-31T11:54:21.937Z,42.60
2018-07-31T11:56:50.244Z,42.90
2018-07-31T11:59:18.428Z,43.20
2018-07-31T12:01:46.627Z,43.10
2018-07-31T12:04:14.792Z,42.60
2018-07-31T12:06:43.195Z,43.90
2018-07-31T12:09:12.760Z,43.50
2018-07-31T12:11:41.244Z,42.60
2018-07-31T12:16:37.329Z,43.30
2018-07-31T12:19:05.685Z,42.80
2018-07-31T12:21:33.797Z,43.30
2018-07-31T12:24:01.964Z,42.10
2018-07-31T12:26:30.122Z,43.00
2018-07-31T12:28:58.293Z,42.60
2018-07-31T12:31:26.641Z,42.60
2018-07-31T12:33:54.794Z,43.80
2018-07-31T12:36:22.969Z,44.00
2018-07-31T12:38:51.126Z,43.70
2018-07-31T12:41:19.293Z,42.30
2018-07-31T12:43:47.760Z,43.00
2018-07-31T12:48:43.847Z,43.70
2018-07-31T12:51:11.975Z,42.60
2018-07-31T12:53:40.125Z,43.40
2018-07-31T12:56:08.285Z,43.80
2018-07-31T12:58:36.441Z,44.90
2018-07-31T13:01:04.603Z,45.60
2018-07-31T13:03:32.744Z,43.90
2018-07-31T13:06:00.921Z,43.90
2018-07-31T13:08:29.053Z,42.20
2018-07-31T13:10:57.204Z,42.90
2018-07-31T13:13:25.357Z,41.80
2018-07-31T13:15:53.685Z,41.90
2018-07-31T13:18:21.828Z,41.90
2018-07-31T13:20:49.973Z,39.90
2018-07-31T13:23:18.121Z,39.50
2018-07-31T13:25:46.257Z,40.10
2018-07-31T13:28:14.416Z,39.90
2018-07-31T13:30:43.470Z,40.60
2018-07-31T13:33:11.605Z,41.30
2018-07-31T13:35:39.745Z,40.80
2018-07-31T13:38:07.889Z,40.30
2018-07-31T13:40:36.032Z,41.50
2018-07-31T13:43:04.177Z,41.10
2018-07-31T13:45:32.322Z,41.40
2018-07-31T13:48:00.498Z,42.80
2018-07-31T13:50:28.645Z,42.80
2018-07-31T13:55:24.706Z,42.50
2018-07-31T13:57:52.839Z,42.30
2018-07-31T14:00:20.972Z,42.90
2018-07-31T14:02:49.317Z,42.70
2018-07-31T14:07:45.596Z,43.80
2018-07-31T14:10:13.745Z,44.10
2018-07-31T14:15:09.811Z,43.00
2018-07-31T14:17:37.949Z,42.00
2018-07-31T14:22:34.000Z,41.80
2018-07-31T14:25:02.133Z,42.60
2018-07-31T14:27:30.269Z,42.20
2018-07-31T14:29:58.434Z,42.50
2018-07-31T14:32:26.600Z,42.00
2018-07-31T14:34:54.749Z,41.30
2018-07-31T14:37:22.893Z,42.10
2018-07-31T14:39:51.042Z,42.30
2018-07-31T14:42:19.200Z,44.60
2018-07-31T14:47:15.268Z,39.60
2018-07-31T14:49:43.408Z,40.20
2018-07-31T14:54:39.469Z,41.10
2018-07-31T14:57:07.613Z,41.30
2018-07-31T14:59:35.770Z,42.60
2018-07-31T15:02:03.928Z,42.30
2018-07-31T15:04:32.069Z,41.80
2018-07-31T15:07:00.228Z,43.00
2018-07-31T15:09:28.363Z,41.90
2018-07-31T15:11:56.520Z,42.10
2018-07-31T15:14:24.658Z,43.70
2018-07-31T15:16:53.025Z,43.00
2018-07-31T15:19:21.172Z,42.40
2018-07-31T15:21:49.316Z,42.80
2018-07-31T15:24:17.459Z,42.00
2018-07-31T15:26:45.604Z,43.20
2018-07-31T15:29:13.761Z,43.70
2018-07-31T15:31:42.073Z,43.20
2018-07-31T15:36:38.128Z,43.80
2018-07-31T15:39:09.055Z,43.20
2018-07-31T15:44:05.127Z,42.30
2018-07-31T15:46:33.282Z,43.00
2018-07-31T15:49:01.429Z,43.40
2018-07-31T15:51:29.587Z,43.10
2018-07-31T15:53:57.766Z,43.00
2018-07-31T15:56:25.912Z,42.40
2018-07-31T15:58:54.352Z,42.70
2018-07-31T16:03:50.404Z,42.50
2018-07-31T16:06:18.548Z,42.60
2018-07-31T16:08:46.680Z,42.70
2018-07-31T16:11:14.836Z,42.50
2018-07-31T16:13:42.987Z,41.80
2018-07-31T16:18:39.073Z,43.30
2018-07-31T16:21:07.242Z,43.20
2018-07-31T16:23:35.393Z,43.80
2018-07-31T16:26:03.613Z,44.20
2018-07-31T16:30:59.629Z,43.60
2018-07-31T16:33:27.785Z,42.20
2018-07-31T16:35:55.936Z,43.20
2018-07-31T16:38:24.224Z,42.50
2018-07-31T16:43:20.280Z,42.00
2018-07-31T16:45:48.452Z,43.20
2018-07-31T16:50:44.527Z,43.30
2018-07-31T16:53:12.684Z,43.60
2018-07-31T16:55:40.850Z,44.50
2018-07-31T16:58:09.044Z,43.70
2018-07-31T17:00:37.342Z,42.90
2018-07-31T17:03:05.508Z,42.90
2018-07-31T17:05:33.683Z,44.50
2018-07-31T17:08:01.837Z,44.30
2018-07-31T17:10:29.979Z,44.40
2018-07-31T17:12:58.121Z,42.60
2018-07-31T17:15:26.273Z,41.40
2018-07-31T17:17:54.433Z,40.20
2018-07-31T17:20:22.584Z,40.90
2018-07-31T17:25:18.677Z,42.00
2018-07-31T17:27:46.808Z,42.30
2018-07-31T17:30:14.996Z,42.20
2018-07-31T17:32:43.129Z,42.30
2018-07-31T17:35:11.441Z,42.90
2018-07-31T17:37:39.576Z,41.80
2018-07-31T17:40:07.720Z,42.30
2018-07-31T17:42:35.856Z,42.80
2018-07-31T17:47:32.597Z,43.80
2018-07-31T17:52:28.656Z,44.70
2018-07-31T17:57:24.721Z,43.70
2018-07-31T17:59:52.873Z,44.10
2018-07-31T18:04:48.938Z,44.60
2018-07-31T18:07:17.067Z,44.30
2018-07-31T18:09:45.215Z,44.30
2018-07-31T18:12:13.345Z,45.00
2018-07-31T19:39:08.037Z,74.20
2018-07-31T19:41:36.200Z,75.50
2018-07-31T19:46:32.341Z,77.70
2018-07-31T19:49:00.425Z,79.50
2018-07-31T19:53:56.501Z,83.20
2018-07-31T19:56:24.650Z,84.20
2018-07-31T19:58:52.804Z,85.10
2018-07-31T20:01:20.973Z,85.60
2018-07-31T20:03:49.139Z,85.40
2018-07-31T20:06:17.277Z,87.40
2018-07-31T20:08:45.438Z,89.80
2018-07-31T20:11:13.617Z,90.30
2018-07-31T20:13:41.764Z,90.80
2018-07-31T20:18:38.553Z,92.20
2018-07-31T20:21:06.798Z,92.50
2018-07-31T20:23:34.884Z,92.90
2018-07-31T20:26:03.030Z,93.30
2018-07-31T20:28:31.191Z,93.50
2018-07-31T20:30:59.381Z,93.90
2018-07-31T20:33:27.540Z,94.60
2018-07-31T20:35:55.699Z,94.90
2018-07-31T20:38:23.868Z,95.40
2018-07-31T20:40:52.012Z,96.00
2018-07-31T20:43:20.450Z,96.60
2018-07-31T20:45:48.601Z,97.00
2018-07-31T20:48:16.769Z,97.40
2018-07-31T20:50:44.938Z,97.90
2018-07-31T20:53:13.088Z,98.20
2018-07-31T20:55:41.356Z,98.60
2018-07-31T21:00:37.426Z,99.20
2018-07-31T21:03:06.009Z,99.50
2018-07-31T21:05:34.164Z,99.80
2018-07-31T21:08:02.320Z,99.90
2018-07-31T21:10:30.487Z,99.90
2018-07-31T21:12:58.679Z,99.90
2018-07-31T21:15:26.828Z,99.90
2018-07-31T21:17:55.075Z,99.90
2018-07-31T21:20:23.238Z,99.90
2018-07-31T21:22:51.825Z,99.90
2018-07-31T21:25:20.094Z,99.90
2018-07-31T21:27:48.261Z,99.80
2018-07-31T21:30:16.433Z,99.80
2018-07-31T21:32:44.577Z,99.90
2018-07-31T21:35:12.721Z,99.70
2018-07-31T21:37:40.885Z,99.60
2018-07-31T21:40:09.053Z,99.60
2018-07-31T21:42:37.197Z,99.70
2018-07-31T21:45:05.349Z,99.60
2018-07-31T21:47:33.488Z,99.20
2018-07-31T21:50:02.461Z,99.40
2018-07-31T21:52:30.597Z,99.40
2018-07-31T21:54:58.773Z,99.70
2018-07-31T21:57:26.904Z,99.90
2018-07-31T21:59:55.048Z,99.70
2018-07-31T22:02:23.198Z,99.70
2018-07-31T22:07:19.272Z,99.90
2018-07-31T22:09:47.414Z,99.90
2018-07-31T22:14:43.593Z,99.90
2018-07-31T22:17:11.737Z,99.90
2018-07-31T22:22:08.293Z,99.90
2018-07-31T22:27:04.369Z,99.90
2018-07-31T22:29:32.545Z,99.90
2018-07-31T22:32:00.694Z,99.90
2018-07-31T22:34:28.857Z,99.90
2018-07-31T22:39:24.922Z,99.90
2018-07-31T22:41:53.089Z,99.90
2018-07-31T22:44:21.248Z,99.90
2018-07-31T22:46:49.397Z,99.90
2018-07-31T22:49:17.555Z,99.90
2018-07-31T22:51:45.805Z,99.90
2018-07-31T22:54:13.958Z,99.90
2018-07-31T22:56:42.105Z,99.90
2018-07-31T22:59:10.273Z,99.90
2018-07-31T23:01:38.421Z,99.90
2018-07-31T23:04:06.724Z,99.90
2018-07-31T23:07:59.113Z,99.90
2018-07-31T23:10:27.259Z,99.90
2018-07-31T23:12:55.416Z,99.90
2018-07-31T23:15:23.565Z,99.90
2018-07-31T23:17:51.720Z,99.90
2018-07-31T23:20:19.913Z,99.80
2018-07-31T23:22:50.523Z,99.60
2018-07-31T23:25:18.812Z,99.40
2018-07-31T23:27:46.953Z,98.80
2018-07-31T23:32:43.208Z,98.10
2018-07-31T23:37:39.302Z,97.80
2018-07-31T23:40:08.180Z,97.70
2018-07-31T23:42:36.448Z,97.60
2018-07-31T23:45:04.853Z,97.50
2018-07-31T23:47:33.013Z,97.50
2018-07-31T23:50:01.791Z,97.20
2018-07-31T23:52:30.273Z,97.00
2018-07-31T23:54:58.521Z,97.10
2018-07-31T23:59:54.620Z,97.00
